Terminal Aerodrome Forecast
Issued by NWS

Home | Current Version | Previous Version | Text Only | Print | Product List | Glossary On
Versions: 1 2 3 4 5 6 7 8 9 10 11 12 13 14 15 16 17 18 19 20
000
FTUS46 KSEW 012300 RRA
TAFOLM
TAF
KOLM 012351Z 0200/0224 VRB04KT P6SM SCT045 OVC070
     FM021000 21004KT P6SM BKN025
     FM021200 21003KT P6SM OVC020
      TEMPO 0212/0214 3SM BR OVC008
     FM021800 22008KT P6SM OVC025=

USA.gov is the U.S. government's official web portal to all federal, state and local government web resources and services.